createdAt,value
2019-03-19T00:02:00.340Z,10.45
2019-03-19T00:08:02.625Z,12.40
2019-03-19T00:14:04.800Z,11.75
2019-03-19T00:20:07.901Z,10.23
2019-03-19T00:26:10.207Z,11.73
2019-03-19T00:32:16.081Z,9.25
2019-03-19T00:38:18.365Z,12.82
2019-03-19T00:44:21.715Z,14.70
2019-03-19T00:50:23.978Z,13.43
2019-03-19T00:56:26.361Z,12.00
2019-03-19T01:02:28.698Z,14.53
2019-03-19T01:08:31.043Z,13.55
2019-03-19T01:14:33.311Z,12.37
2019-03-19T01:20:35.666Z,13.13
2019-03-19T01:26:38.845Z,13.08
2019-03-19T01:32:41.683Z,14.50
2019-03-19T01:38:44.248Z,12.75
2019-03-19T01:44:46.477Z,18.60
2019-03-19T01:50:48.884Z,18.15
2019-03-19T01:56:52.240Z,16.97
2019-03-19T02:02:54.808Z,14.70
2019-03-19T02:08:57.074Z,15.68
2019-03-19T02:14:59.654Z,14.47
2019-03-19T02:21:02.166Z,14.60
2019-03-19T02:27:04.612Z,14.15
2019-03-19T02:33:07.011Z,15.00
2019-03-19T02:39:09.430Z,14.25
2019-03-19T02:45:12.006Z,10.58
2019-03-19T02:51:14.366Z,21.15
2019-03-19T02:57:16.746Z,16.30
2019-03-19T03:03:19.020Z,23.95
2019-03-19T03:09:21.606Z,15.98
2019-03-19T03:15:23.850Z,16.80
2019-03-19T03:21:26.150Z,17.00
2019-03-19T03:27:28.674Z,21.05
2019-03-19T03:33:31.451Z,14.98
2019-03-19T03:39:34.384Z,17.92
2019-03-19T03:45:36.823Z,18.07
2019-03-19T03:51:39.255Z,19.65
2019-03-19T03:57:41.882Z,18.27
2019-03-19T04:03:44.224Z,16.67
2019-03-19T04:09:46.570Z,18.30
2019-03-19T04:15:48.929Z,18.20
2019-03-19T04:21:51.270Z,16.93
2019-03-19T04:27:53.814Z,15.98
2019-03-19T04:33:56.363Z,14.68
2019-03-19T04:39:58.796Z,16.35
2019-03-19T04:46:01.449Z,16.85
2019-03-19T04:52:03.736Z,16.90
2019-03-19T04:58:06.271Z,18.85
2019-03-19T05:04:08.705Z,13.95
2019-03-19T05:10:12.173Z,15.60
2019-03-19T05:16:16.432Z,16.00
2019-03-19T05:22:18.749Z,14.95
2019-03-19T05:28:21.125Z,16.23
2019-03-19T05:34:23.593Z,15.70
2019-03-19T05:40:26.004Z,14.50
2019-03-19T05:46:29.508Z,16.25
2019-03-19T05:52:31.827Z,14.70
2019-03-19T05:58:34.248Z,16.23
2019-03-19T06:04:36.636Z,17.65
2019-03-19T06:10:38.815Z,19.27
2019-03-19T06:16:41.032Z,18.80
2019-03-19T06:22:43.584Z,19.75
2019-03-19T06:28:45.894Z,19.60
2019-03-19T06:34:49.044Z,17.77
2019-03-19T06:40:51.290Z,17.82
2019-03-19T06:46:53.680Z,15.98
2019-03-19T06:52:55.915Z,14.00
2019-03-19T06:58:58.239Z,14.13
2019-03-19T07:05:00.760Z,17.50
2019-03-19T07:11:04.071Z,12.80
2019-03-19T07:17:06.356Z,16.87
2019-03-19T07:23:09.489Z,15.72
2019-03-19T07:29:11.767Z,15.25
2019-03-19T07:35:14.117Z,18.30
2019-03-19T07:41:17.649Z,16.50
2019-03-19T07:47:20.115Z,17.10
2019-03-19T07:53:22.579Z,14.83
2019-03-19T07:59:24.932Z,15.60
2019-03-19T08:05:32.958Z,17.17
2019-03-19T08:11:33.742Z,15.13
2019-03-19T08:17:36.000Z,12.98
2019-03-19T08:23:38.256Z,15.40
2019-03-19T08:29:40.559Z,15.15
2019-03-19T08:35:42.761Z,12.37
2019-03-19T08:41:45.053Z,15.55
2019-03-19T08:47:47.387Z,12.37
2019-03-19T08:53:50.139Z,12.13
2019-03-19T08:59:52.420Z,16.85
2019-03-19T09:05:54.567Z,14.50
2019-03-19T09:11:56.755Z,14.68
2019-03-19T09:17:58.916Z,16.32
2019-03-19T09:24:01.735Z,13.65
2019-03-19T09:30:04.886Z,15.88
2019-03-19T09:36:07.264Z,18.20
2019-03-19T09:42:09.532Z,14.05
2019-03-19T09:48:11.867Z,11.75
2019-03-19T09:54:14.281Z,12.70
2019-03-19T10:00:16.854Z,12.90
2019-03-19T10:06:19.140Z,14.45
2019-03-19T10:12:21.512Z,13.22
2019-03-19T10:18:23.775Z,11.70
2019-03-19T10:24:26.083Z,10.78
2019-03-19T10:30:29.313Z,9.98
2019-03-19T10:36:31.494Z,10.65
2019-03-19T10:42:33.872Z,9.05
2019-03-19T10:48:36.110Z,9.48
2019-03-19T10:54:38.388Z,9.45
2019-03-19T11:00:40.731Z,10.48
2019-03-19T11:06:43.051Z,9.58
2019-03-19T11:12:45.380Z,11.40
2019-03-19T11:18:47.624Z,10.10
2019-03-19T11:24:50.027Z,8.48
2019-03-19T11:30:52.302Z,9.33
2019-03-19T11:36:58.066Z,10.55
2019-03-19T11:42:58.542Z,9.15
2019-03-19T11:49:00.922Z,7.75
2019-03-19T11:55:04.699Z,7.08
2019-03-19T12:01:07.021Z,9.43
2019-03-19T12:07:09.302Z,7.50
2019-03-19T12:13:11.601Z,2.95
2019-03-19T12:19:13.884Z,6.83
2019-03-19T12:25:16.108Z,2.22
2019-03-19T12:31:18.407Z,3.50
2019-03-19T12:37:20.763Z,5.30
2019-03-19T12:43:23.116Z,10.00
2019-03-19T12:49:25.508Z,12.90
2019-03-19T12:55:27.771Z,7.42
2019-03-19T13:01:30.110Z,6.47
2019-03-19T13:07:32.465Z,5.22
2019-03-19T13:13:34.719Z,6.03
2019-03-19T13:19:36.872Z,8.93
2019-03-19T13:25:39.203Z,10.38
2019-03-19T13:31:43.636Z,13.93
2019-03-19T13:37:46.055Z,10.40
2019-03-19T13:43:48.238Z,9.78
2019-03-19T13:49:50.602Z,7.42
2019-03-19T13:55:52.758Z,9.23
2019-03-19T14:01:56.140Z,5.90
2019-03-19T14:07:58.973Z,7.17
2019-03-19T14:14:01.168Z,7.40
2019-03-19T14:20:06.223Z,4.72
2019-03-19T14:26:09.331Z,6.37
2019-03-19T14:32:11.836Z,6.28
2019-03-19T14:38:14.062Z,7.85
2019-03-19T14:44:18.677Z,6.58
2019-03-19T14:50:20.898Z,7.97
2019-03-19T14:56:23.290Z,5.08
2019-03-19T15:02:26.830Z,4.92
2019-03-19T15:08:29.563Z,5.37
2019-03-19T15:14:31.804Z,7.47
2019-03-19T15:20:34.637Z,6.58
2019-03-19T15:26:37.440Z,8.10
2019-03-19T15:32:39.690Z,6.25
2019-03-19T15:38:42.486Z,6.97
2019-03-19T15:44:46.159Z,5.78
2019-03-19T15:50:48.344Z,7.72
2019-03-19T15:56:50.607Z,8.18
2019-03-19T16:02:53.066Z,9.03
2019-03-19T16:08:55.555Z,6.25
2019-03-19T16:14:57.810Z,7.97
2019-03-19T16:21:00.318Z,10.85
2019-03-19T16:27:02.914Z,6.83
2019-03-19T16:33:05.394Z,5.05
2019-03-19T16:39:07.712Z,6.97
2019-03-19T16:45:10.045Z,7.08
2019-03-19T16:51:13.732Z,5.65
2019-03-19T16:57:16.052Z,7.28
2019-03-19T17:03:19.324Z,5.83
2019-03-19T17:09:21.847Z,5.97
2019-03-19T17:15:24.168Z,7.97
2019-03-19T17:21:26.549Z,7.70
2019-03-19T17:27:29.027Z,9.20
2019-03-19T17:33:31.410Z,9.38
2019-03-19T17:39:33.688Z,12.58
2019-03-19T17:45:36.337Z,9.10
2019-03-19T17:51:38.933Z,10.48
2019-03-19T17:57:41.537Z,9.90
2019-03-19T18:03:44.345Z,7.87
2019-03-19T18:09:48.099Z,9.95
2019-03-19T18:15:50.783Z,7.47
2019-03-19T18:21:53.939Z,9.18
2019-03-19T18:27:56.959Z,7.97
2019-03-19T18:34:09.670Z,12.18
2019-03-19T18:40:04.315Z,10.15
2019-03-19T18:46:07.078Z,9.10
2019-03-19T18:52:09.801Z,10.78
2019-03-19T18:58:13.111Z,11.68
2019-03-19T19:04:15.421Z,16.23
2019-03-19T19:10:20.734Z,12.43
2019-03-19T19:16:22.188Z,10.95
2019-03-19T19:22:24.473Z,8.30
2019-03-19T19:28:26.772Z,11.43
2019-03-19T19:34:29.046Z,12.55
2019-03-19T19:40:31.446Z,24.67
2019-03-19T19:46:33.744Z,19.23
2019-03-19T19:52:36.009Z,24.45
2019-03-19T19:58:38.442Z,19.15
2019-03-19T20:04:40.716Z,16.05
2019-03-19T20:10:43.153Z,22.70
2019-03-19T20:16:45.535Z,19.60
2019-03-19T20:22:47.860Z,11.73
2019-03-19T20:28:50.441Z,11.45
2019-03-19T20:34:53.267Z,11.57
2019-03-19T20:40:55.439Z,11.75
2019-03-19T20:46:57.728Z,15.03
2019-03-19T20:53:00.261Z,11.93
2019-03-19T20:59:02.627Z,9.28
2019-03-19T21:05:06.100Z,13.00
2019-03-19T21:11:08.531Z,11.65
2019-03-19T21:17:11.347Z,11.43
2019-03-19T21:23:13.801Z,11.93
2019-03-19T21:29:16.036Z,15.83
2019-03-19T21:35:21.352Z,13.32
2019-03-19T21:41:23.495Z,14.30
2019-03-19T21:47:25.794Z,11.73
2019-03-19T21:53:28.564Z,11.18
2019-03-19T21:59:31.010Z,15.15
2019-03-19T22:05:35.970Z,15.95
2019-03-19T22:11:38.315Z,13.55
2019-03-19T22:17:40.705Z,16.35
2019-03-19T22:23:43.381Z,13.95
2019-03-19T22:29:45.630Z,13.13
2019-03-19T22:35:48.037Z,12.55
2019-03-19T22:41:50.373Z,13.53
2019-03-19T22:47:52.587Z,17.32
2019-03-19T22:53:54.925Z,13.13
2019-03-19T22:59:57.390Z,12.33
2019-03-19T23:05:59.663Z,12.05
2019-03-19T23:12:02.149Z,12.47
2019-03-19T23:18:05.624Z,14.43
2019-03-19T23:24:07.829Z,10.80
2019-03-19T23:30:11.083Z,10.18
2019-03-19T23:36:13.319Z,10.70
2019-03-19T23:42:15.651Z,12.40
2019-03-19T23:48:17.980Z,10.10
2019-03-19T23:54:20.350Z,10.75
